createdAt,value
2018-09-04T00:04:43.609Z,101186.23
2018-09-04T00:09:47.210Z,101186.63
2018-09-04T00:14:50.600Z,101182.00
2018-09-04T00:19:54.004Z,101173.02
2018-09-04T00:24:58.038Z,101176.16
2018-09-04T00:30:04.137Z,101168.91
2018-09-04T00:35:08.432Z,101178.76
2018-09-04T00:40:12.306Z,101179.05
2018-09-04T00:45:15.797Z,101187.42
2018-09-04T00:50:19.249Z,101180.11
2018-09-04T00:55:22.655Z,101184.91
2018-09-04T01:00:30.697Z,101182.87
2018-09-04T01:05:35.682Z,101182.59
2018-09-04T01:10:40.484Z,101178.44
2018-09-04T01:15:43.944Z,101180.75
2018-09-04T01:20:47.364Z,101180.58
2018-09-04T01:25:50.769Z,101178.72
2018-09-04T01:30:54.213Z,101180.94
2018-09-04T01:35:59.021Z,101184.32
2018-09-04T01:41:05.788Z,101182.98
2018-09-04T01:46:10.556Z,101180.41
2018-09-04T01:51:14.033Z,101185.33
2018-09-04T01:56:17.406Z,101192.35
2018-09-04T02:01:20.855Z,101187.81
2018-09-04T02:06:24.249Z,101183.47
2018-09-04T02:11:28.135Z,101180.59
2018-09-04T02:16:34.436Z,101174.60
2018-09-04T02:21:39.071Z,101175.39
2018-09-04T02:26:42.674Z,101165.75
2018-09-04T02:31:46.008Z,101169.80
2018-09-04T02:36:49.369Z,101167.06
2018-09-04T02:41:52.748Z,101165.77
2018-09-04T02:46:57.479Z,101171.41
2018-09-04T02:52:04.468Z,101157.94
2018-09-04T02:57:09.259Z,101160.16
2018-09-04T03:02:12.888Z,101165.48
2018-09-04T03:07:16.416Z,101166.91
2018-09-04T03:12:19.913Z,101167.22
2018-09-04T03:17:23.524Z,101163.23
2018-09-04T03:22:28.794Z,101163.48
2018-09-04T03:27:35.353Z,101170.88
2018-09-04T03:32:40.242Z,101162.83
2018-09-04T03:37:45.934Z,101158.70
2018-09-04T03:42:53.017Z,101164.16
2018-09-04T03:47:56.617Z,101155.19
2018-09-04T03:52:59.986Z,101157.28
2018-09-04T03:58:03.369Z,101159.27
2018-09-04T04:03:06.875Z,101166.47
2018-09-04T04:08:13.566Z,101164.64
2018-09-04T04:13:18.623Z,101161.63
2018-09-04T04:18:23.441Z,101163.34
2018-09-04T04:23:27.808Z,101167.59
2018-09-04T04:28:31.197Z,101178.48
2018-09-04T04:33:34.595Z,101180.58
2018-09-04T04:38:38.230Z,101182.37
2018-09-04T04:43:44.530Z,101189.23
2018-09-04T04:48:49.023Z,101187.45
2018-09-04T04:53:53.198Z,101177.38
2018-09-04T04:58:57.206Z,101182.30
2018-09-04T05:04:00.845Z,101187.67
2018-09-04T05:09:06.922Z,101184.45
2018-09-04T05:14:15.535Z,101185.13
2018-09-04T05:19:21.082Z,101190.92
2018-09-04T05:24:24.756Z,101184.02
2018-09-04T05:29:28.839Z,101190.55
2018-09-04T05:34:32.290Z,101192.61
2018-09-04T05:39:39.167Z,101195.03
2018-09-04T05:44:45.263Z,101190.05
2018-09-04T05:49:49.675Z,101192.02
2018-09-04T05:54:53.708Z,101192.69
2018-09-04T05:59:57.577Z,101196.96
2018-09-04T06:05:00.981Z,101200.71
2018-09-04T06:10:04.621Z,101197.33
2018-09-04T06:15:08.095Z,101192.87
2018-09-04T06:20:14.477Z,101194.35
2018-09-04T06:25:18.880Z,101200.95
2018-09-04T06:30:23.284Z,101199.45
2018-09-04T06:35:26.850Z,101205.18
2018-09-04T06:40:30.246Z,101209.25
2018-09-04T06:45:33.725Z,101206.03
2018-09-04T06:50:37.106Z,101208.92
2018-09-04T06:55:41.822Z,101200.53
2018-09-04T07:00:47.508Z,101206.97
2018-09-04T07:05:51.915Z,101181.84
2018-09-04T07:10:55.710Z,101212.55
2018-09-04T07:15:59.090Z,101215.56
2018-09-04T07:21:02.484Z,101222.32
2018-09-04T07:26:05.883Z,101232.02
2018-09-04T07:31:09.367Z,101235.82
2018-09-04T07:36:15.267Z,101237.93
2018-09-04T07:41:19.811Z,101238.45
2018-09-04T07:46:23.755Z,101240.13
2018-09-04T07:51:26.990Z,101245.72
2018-09-04T07:56:30.354Z,101246.31
2018-09-04T08:01:33.803Z,101239.08
2018-09-04T08:06:37.203Z,101239.75
2018-09-04T08:11:45.040Z,101243.06
2018-09-04T08:16:50.236Z,101249.84
2018-09-04T08:21:54.170Z,101251.67
2018-09-04T08:26:57.698Z,101250.33
2018-09-04T08:32:00.765Z,101252.01
2018-09-04T08:37:03.803Z,101251.47
2018-09-04T08:42:07.280Z,101247.86
2018-09-04T08:47:16.243Z,101242.05
2018-09-04T08:52:21.492Z,101247.59
2018-09-04T08:57:25.147Z,101246.44
2018-09-04T09:02:28.190Z,101241.89
2018-09-04T09:07:31.206Z,101232.38
2018-09-04T09:12:34.225Z,101233.53
2018-09-04T09:17:37.238Z,101226.91
2018-09-04T09:22:45.561Z,101217.39
2018-09-04T09:27:49.464Z,101225.49
2018-09-04T09:32:54.599Z,101224.13
2018-09-04T09:37:57.725Z,101223.03
2018-09-04T09:43:00.727Z,101220.22
2018-09-04T09:48:04.012Z,101216.98
2018-09-04T09:53:09.362Z,101218.84
2018-09-04T09:58:23.820Z,101217.16
2018-09-04T10:03:32.590Z,101222.22
2018-09-04T10:08:35.847Z,101217.54
2018-09-04T10:13:39.337Z,101210.66
2018-09-04T10:18:42.817Z,101206.70
2018-09-04T10:23:46.785Z,101207.65
2018-09-04T10:28:49.819Z,101211.53
2018-09-04T10:33:52.857Z,101194.91
2018-09-04T10:39:02.538Z,101189.13
2018-09-04T10:44:07.042Z,101192.45
2018-09-04T10:49:10.126Z,101186.98
2018-09-04T10:54:19.727Z,101182.20
2018-09-04T10:59:23.945Z,101181.03
2018-09-04T11:04:27.039Z,101173.73
2018-09-04T11:09:30.168Z,101173.94
2018-09-04T11:14:33.132Z,101166.78
2018-09-04T11:19:36.190Z,101167.80
2018-09-04T11:24:39.425Z,101166.64
2018-09-04T11:29:48.215Z,101162.82
2018-09-04T11:34:53.674Z,101166.23
2018-09-04T11:39:56.885Z,101162.23
2018-09-04T11:44:59.891Z,101156.17
2018-09-04T11:50:03.123Z,101162.91
2018-09-04T11:55:06.789Z,101163.54
2018-09-04T12:00:15.554Z,101158.63
2018-09-04T12:05:19.979Z,101155.42
2018-09-04T12:10:24.434Z,101156.41
2018-09-04T12:15:27.958Z,101156.78
2018-09-04T12:20:50.119Z,101158.51
2018-09-04T12:25:57.398Z,101150.60
2018-09-04T12:31:00.903Z,101154.20
2018-09-04T12:36:05.544Z,101156.33
2018-09-04T12:41:15.846Z,101157.27
2018-09-04T12:46:19.980Z,101144.09
2018-09-04T12:51:23.971Z,101148.09
2018-09-04T12:56:28.249Z,101150.02
2018-09-04T13:01:32.363Z,101146.04
2018-09-04T13:06:35.788Z,101148.16
2018-09-04T13:11:39.155Z,101155.48
2018-09-04T13:16:43.565Z,101149.33
2018-09-04T13:21:48.378Z,101149.88
2018-09-04T13:26:51.702Z,101145.71
2018-09-04T13:31:54.792Z,101137.22
2018-09-04T13:36:57.808Z,101132.02
2018-09-04T13:42:00.858Z,101132.37
2018-09-04T13:47:04.182Z,101135.27
2018-09-04T13:52:07.237Z,101142.86
2018-09-04T13:57:10.369Z,101143.27
2018-09-04T14:02:13.305Z,101137.80
2018-09-04T14:07:16.374Z,101140.59
2018-09-04T14:12:55.908Z,101138.59
2018-09-04T14:18:01.033Z,101133.34
2018-09-04T14:23:04.205Z,101129.11
2018-09-04T14:28:07.203Z,101138.79
2018-09-04T14:33:10.238Z,101127.40
2018-09-04T14:38:13.286Z,101122.69
2018-09-04T14:43:17.502Z,101129.27
2018-09-04T14:48:23.466Z,101122.69
2018-09-04T14:53:34.808Z,101129.72
2018-09-04T14:58:38.991Z,101131.00
2018-09-04T15:03:44.652Z,101134.02
2018-09-04T15:08:48.285Z,101135.97
2018-09-04T15:13:54.091Z,101133.05
2018-09-04T15:18:57.214Z,101135.23
2018-09-04T15:24:00.250Z,101130.80
2018-09-04T15:29:03.506Z,101130.75
2018-09-04T15:34:06.596Z,101134.30
2018-09-04T15:39:13.101Z,101131.20
2018-09-04T15:44:20.239Z,101130.31
2018-09-04T15:49:29.974Z,101133.03
2018-09-04T15:54:33.184Z,101139.63
2018-09-04T15:59:40.676Z,101140.33
2018-09-04T16:04:46.222Z,101136.59
2018-09-04T16:09:50.870Z,101134.96
2018-09-04T16:14:54.121Z,101144.22
2018-09-04T16:19:57.186Z,101135.05
2018-09-04T16:25:00.245Z,101135.94
2018-09-04T16:30:03.448Z,101131.69
2018-09-04T16:35:07.544Z,101135.36
2018-09-04T16:40:13.301Z,101139.25
2018-09-04T16:45:17.643Z,101135.33
2018-09-04T16:50:22.150Z,101141.50
2018-09-04T16:55:25.164Z,101140.50
2018-09-04T17:00:28.241Z,101139.59
2018-09-04T17:05:31.363Z,101139.77
2018-09-04T17:10:35.066Z,101153.30
2018-09-04T17:15:39.414Z,101153.84
2018-09-04T17:20:44.073Z,101149.81
2018-09-04T17:25:48.271Z,101160.39
2018-09-04T17:30:51.923Z,101163.55
2018-09-04T17:35:55.112Z,101167.31
2018-09-04T17:40:58.338Z,101173.08
2018-09-04T17:46:01.427Z,101170.23
2018-09-04T17:51:04.961Z,101171.03
2018-09-04T17:56:08.321Z,101172.07
2018-09-04T18:01:15.121Z,101182.56
2018-09-04T18:06:18.977Z,101187.11
2018-09-04T18:11:22.172Z,101192.41
2018-09-04T18:16:25.182Z,101199.27
2018-09-04T18:21:28.739Z,101208.91
2018-09-04T18:26:33.237Z,101215.47
2018-09-04T18:31:38.203Z,101211.45
2018-09-04T18:36:42.759Z,101216.75
2018-09-04T18:41:45.927Z,101222.66
2018-09-04T18:46:49.095Z,101237.98
2018-09-04T18:51:52.373Z,101249.88
2018-09-04T18:56:55.621Z,101251.48
2018-09-04T19:01:58.719Z,101252.39
2018-09-04T19:07:02.473Z,101261.95
2018-09-04T19:12:06.867Z,101264.70
2018-09-04T19:17:11.067Z,101270.20
2018-09-04T19:22:14.559Z,101268.42
2018-09-04T19:27:17.698Z,101268.94
2018-09-04T19:32:20.779Z,101273.13
2018-09-04T19:37:23.895Z,101270.72
2018-09-04T19:42:29.546Z,101280.23
2018-09-04T19:47:32.827Z,101286.56
2018-09-04T19:52:35.906Z,101283.16
2018-09-04T19:57:38.999Z,101286.20
2018-09-04T20:02:42.049Z,101266.14
2018-09-04T20:07:45.106Z,101294.22
2018-09-04T20:12:48.600Z,101290.19
2018-09-04T20:17:52.174Z,101290.09
2018-09-04T20:22:55.550Z,101291.03
2018-09-04T20:27:58.756Z,101287.26
2018-09-04T20:33:01.862Z,101292.23
2018-09-04T20:38:05.009Z,101298.31
2018-09-04T20:43:08.061Z,101306.31
2018-09-04T20:48:11.082Z,101308.34
2018-09-04T20:53:14.537Z,101298.45
2018-09-04T20:58:34.834Z,101304.48
2018-09-04T21:03:55.152Z,101308.07
2018-09-04T21:09:05.407Z,101310.91
2018-09-04T21:14:08.476Z,101316.09
2018-09-04T21:19:11.496Z,101317.73
2018-09-04T21:24:15.134Z,101318.67
2018-09-04T21:29:18.430Z,101323.21
2018-09-04T21:34:22.182Z,101329.25
2018-09-04T21:39:25.507Z,101331.98
2018-09-04T21:44:28.862Z,101331.09
2018-09-04T21:49:31.902Z,101333.08
2018-09-04T21:54:34.921Z,101333.77
2018-09-04T21:59:37.955Z,101342.41
2018-09-04T22:04:41.873Z,101348.83
2018-09-04T22:09:45.159Z,101354.97
2018-09-04T22:14:48.582Z,101348.13
2018-09-04T22:19:52.213Z,101353.17
2018-09-04T22:24:55.482Z,101352.80
2018-09-04T22:29:58.674Z,101353.53
2018-09-04T22:35:01.715Z,101355.02
2018-09-04T22:40:05.173Z,101365.70
2018-09-04T22:45:08.250Z,101364.73
2018-09-04T22:50:17.352Z,101368.81
2018-09-04T22:55:21.204Z,101370.17
2018-09-04T23:00:24.478Z,101376.50
2018-09-04T23:05:27.931Z,101372.72
2018-09-04T23:10:30.958Z,101377.52
2018-09-04T23:15:38.549Z,101373.73
2018-09-04T23:20:41.805Z,101378.14
2018-09-04T23:25:44.818Z,101370.48
2018-09-04T23:30:48.112Z,101367.84
2018-09-04T23:35:51.977Z,101360.27
2018-09-04T23:40:55.481Z,101359.67
2018-09-04T23:46:00.725Z,101362.53
2018-09-04T23:51:03.787Z,101357.02
2018-09-04T23:56:06.807Z,101358.74
